Time;durP1;ratioP1;P1;durP2;ratioP2;P2;SDS_P1;SDS_P2;PMS_P1;PMS_P2;Temp;Humidity;BMP_temperature;BMP_pressure;BME280_temperature;BME280_humidity;BME280_pressure;Samples;Min_cycle;Max_cycle;Signal;HPM_P1;HPM_P2
2023/01/14 00:00:26;;;;;;;5.20;4.60;;;;;;;1.71;100.00;100684.34;5035389;28;20029;-73
2023/01/14 00:02:52;;;;;;;5.77;5.10;;;;;;;1.70;100.00;100684.47;5034786;28;20041;-75
2023/01/14 00:05:17;;;;;;;6.00;5.43;;;;;;;1.73;100.00;100692.13;5034659;28;20026;-74
2023/01/14 00:07:43;;;;;;;8.23;5.43;;;;;;;1.73;100.00;100690.34;5017461;28;20033;-74
2023/01/14 00:10:09;;;;;;;8.03;5.07;;;;;;;1.73;100.00;100685.09;5035209;28;20022;-74
2023/01/14 00:12:35;;;;;;;7.90;5.80;;;;;;;1.69;100.00;100682.78;5035499;28;20112;-74
2023/01/14 00:15:00;;;;;;;8.93;5.20;;;;;;;1.67;100.00;100685.53;5035558;28;20425;-73
2023/01/14 00:17:28;;;;;;;12.27;6.30;;;;;;;1.72;100.00;100687.81;5035227;28;20051;-72
2023/01/14 00:19:53;;;;;;;8.70;5.00;;;;;;;1.53;100.00;100657.63;5034743;28;20290;-74
2023/01/14 00:22:19;;;;;;;6.00;5.00;;;;;;;1.61;100.00;100674.63;5035182;28;20022;-72
2023/01/14 00:24:46;;;;;;;10.27;7.33;;;;;;;1.63;100.00;100672.72;5034120;28;20471;-72
2023/01/14 00:27:12;;;;;;;10.33;7.17;;;;;;;1.50;100.00;100655.22;5041181;28;20025;-72
2023/01/14 00:29:37;;;;;;;9.70;7.03;;;;;;;1.61;100.00;100680.72;5043937;28;20363;-74
2023/01/14 00:32:05;;;;;;;10.33;6.63;;;;;;;1.63;100.00;100672.72;5042347;28;20069;-73
2023/01/14 00:34:32;;;;;;;9.87;6.90;;;;;;;1.64;100.00;100698.03;5041753;28;20037;-73
2023/01/14 00:36:58;;;;;;;9.63;7.40;;;;;;;1.65;100.00;100697.91;5039354;28;20604;-74
2023/01/14 00:39:24;;;;;;;9.93;6.67;;;;;;;1.67;100.00;100690.78;5035153;28;20264;-71
2023/01/14 00:41:50;;;;;;;10.17;6.80;;;;;;;1.67;100.00;100703.06;5034480;28;20272;-73
2023/01/14 00:44:19;;;;;;;10.03;7.30;;;;;;;1.63;100.00;100694.56;5034199;28;20045;-74
2023/01/14 00:46:46;;;;;;;7.13;5.97;;;;;;;1.72;100.00;100699.16;5034124;28;20049;-76
2023/01/14 00:49:18;;;;;;;10.10;6.73;;;;;;;1.73;100.00;100690.34;5034440;28;20604;-74
2023/01/14 00:51:44;;;;;;;8.17;5.87;;;;;;;1.73;100.00;100692.13;5034178;28;20272;-71
2023/01/14 00:54:09;;;;;;;9.33;6.43;;;;;;;1.68;100.00;100683.72;5034192;28;20271;-75
2023/01/14 00:56:35;;;;;;;7.27;5.83;;;;;;;1.72;100.00;100688.66;5016161;28;20458;-73
2023/01/14 00:59:00;;;;;;;8.93;6.90;;;;;;;1.74;100.00;100691.19;5034419;28;20076;-73
2023/01/14 01:01:26;;;;;;;7.70;6.30;;;;;;;1.71;100.00;100694.00;5033949;28;20030;-73
2023/01/14 01:03:56;;;;;;;7.53;6.47;;;;;;;1.64;100.00;100684.91;5034000;28;20058;-74
2023/01/14 01:06:23;;;;;;;10.93;6.57;;;;;;;1.75;100.00;100695.50;5033757;28;20351;-75
2023/01/14 01:08:50;;;;;;;8.80;5.83;;;;;;;1.74;100.00;100697.28;5034378;28;20367;-72
2023/01/14 01:11:16;;;;;;;10.60;6.17;;;;;;;1.74;100.00;100696.47;5035295;28;20305;-73
2023/01/14 01:13:42;;;;;;;8.00;6.33;;;;;;;1.76;100.00;100703.28;5034009;28;20260;-74
2023/01/14 01:16:13;;;;;;;8.30;5.97;;;;;;;1.75;100.00;100693.72;5015888;28;20739;-74
2023/01/14 01:18:40;;;;;;;7.63;5.53;;;;;;;1.75;100.00;100693.72;5033721;28;20029;-72
2023/01/14 01:21:11;;;;;;;11.60;8.70;;;;;;;1.69;100.00;100683.63;5033464;28;20345;-73
2023/01/14 01:23:40;;;;;;;8.77;6.07;;;;;;;1.71;100.00;100683.50;5033645;28;20248;-74
2023/01/14 01:26:11;;;;;;;6.13;5.50;;;;;;;1.74;100.00;100676.28;5015977;28;20612;-74
2023/01/14 01:28:37;;;;;;;7.33;6.27;;;;;;;1.77;100.00;100680.47;5015501;28;20304;-72
2023/01/14 01:31:09;;;;;;;7.53;6.50;;;;;;;1.74;100.00;100670.19;5033548;28;20260;-72
2023/01/14 01:33:35;;;;;;;7.23;6.33;;;;;;;1.75;100.00;100677.13;5033630;28;20385;-73
2023/01/14 01:36:21;;;;;;;9.47;7.33;;;;;;;1.68;100.00;100675.84;5032697;28;20288;-72
2023/01/14 01:38:47;;;;;;;11.33;7.07;;;;;;;1.70;100.00;100698.44;5033540;28;20029;-74
2023/01/14 01:41:17;;;;;;;8.43;6.27;;;;;;;1.71;100.00;100696.63;5033383;28;20616;-71
2023/01/14 01:44:28;;;;;;;10.57;7.20;;;;;;;1.73;100.00;100702.63;5033581;28;20379;-75
2023/01/14 01:47:00;;;;;;;10.17;6.80;;;;;;;1.75;100.00;100706.84;5033145;28;20330;-75
2023/01/14 01:49:29;;;;;;;8.17;7.23;;;;;;;1.72;100.00;100700.94;5032920;28;20662;-74
2023/01/14 01:52:00;;;;;;;7.97;6.70;;;;;;;1.80;100.00;100701.28;5034103;28;20274;-73
2023/01/14 01:54:30;;;;;;;8.53;6.73;;;;;;;1.77;100.00;100697.06;5034550;28;20276;-72
2023/01/14 01:56:56;;;;;;;11.33;7.20;;;;;;;1.75;100.00;100708.63;5033916;28;20288;-72
2023/01/14 01:59:26;;;;;;;11.00;7.43;;;;;;;1.69;100.00;100706.41;5016323;28;20626;-73
2023/01/14 02:01:54;;;;;;;9.13;6.83;;;;;;;1.69;100.00;100709.88;5033530;28;20248;-71
2023/01/14 02:04:20;;;;;;;9.10;7.40;;;;;;;1.72;100.00;100706.19;5033376;28;20260;-72
2023/01/14 02:06:46;;;;;;;11.33;7.40;;;;;;;1.70;100.00;100701.06;5032970;28;20033;-72
2023/01/14 02:09:12;;;;;;;10.13;5.90;;;;;;;1.68;100.00;100702.09;5032615;28;20256;-71
2023/01/14 02:12:17;;;;;;;8.77;5.83;;;;;;;1.70;100.00;100705.47;5032698;28;20060;-74
2023/01/14 02:15:20;;;;;;;10.63;7.53;;;;;;;1.72;100.00;100709.66;5032682;28;20311;-72
2023/01/14 02:18:02;;;;;;;10.10;6.63;;;;;;;1.69;100.00;100693.28;5032583;28;20386;-72
2023/01/14 02:20:43;;;;;;;11.50;7.17;;;;;;;1.66;100.00;100691.72;5032428;28;20256;-74
2023/01/14 02:23:17;;;;;;;11.63;7.53;;;;;;;1.66;100.00;100693.50;5033122;28;20257;-74
2023/01/14 02:25:52;;;;;;;11.40;6.93;;;;;;;1.64;100.00;100691.00;5033118;28;20271;-74
2023/01/14 02:28:30;;;;;;;9.90;7.00;;;;;;;1.69;100.00;100696.75;5032921;28;20300;-72
2023/01/14 02:31:03;;;;;;;10.13;7.03;;;;;;;1.66;100.00;100685.63;5032509;28;20299;-73
2023/01/14 02:33:38;;;;;;;9.53;7.33;;;;;;;1.70;100.00;100684.47;5015021;28;20259;-74
2023/01/14 02:36:19;;;;;;;9.77;6.70;;;;;;;1.68;100.00;100695.06;5032690;28;20324;-74
2023/01/14 02:38:53;;;;;;;11.00;8.30;;;;;;;1.66;100.00;100689.09;5033448;28;20828;-71
2023/01/14 02:44:23;;;;;;;11.03;6.93;;;;;;;1.68;100.00;100699.47;5034121;28;20371;-72
2023/01/14 02:46:51;;;;;;;11.77;8.63;;;;;;;1.68;100.00;100697.69;5034671;28;20304;-73
2023/01/14 02:49:23;;;;;;;10.40;7.87;;;;;;;1.68;100.00;100700.31;5033357;28;20253;-73
2023/01/14 02:51:49;;;;;;;10.93;8.27;;;;;;;1.59;100.00;100693.09;5032796;28;20322;-72
2023/01/14 02:54:40;;;;;;;9.50;7.03;;;;;;;1.66;100.00;100711.88;5034586;28;20307;-71
2023/01/14 02:57:18;;;;;;;12.93;7.93;;;;;;;1.68;100.00;100702.09;5014889;28;20280;-73
2023/01/14 03:00:12;;;;;;;13.18;7.10;;;;;;;1.60;100.00;100700.03;5032520;28;20087;-74
2023/01/14 03:02:56;;;;;;;11.00;7.53;;;;;;;1.63;100.00;100707.69;5028394;28;20477;-73
2023/01/14 03:05:22;;;;;;;11.93;7.23;;;;;;;1.63;100.00;100706.84;5032070;28;20410;-73
2023/01/14 03:07:58;;;;;;;11.63;7.33;;;;;;;1.61;100.00;100704.31;5032193;28;20248;-73
2023/01/14 03:10:29;;;;;;;12.20;7.80;;;;;;;1.64;100.00;100692.78;5031976;28;20525;-73
2023/01/14 03:13:15;;;;;;;11.40;8.60;;;;;;;1.72;100.00;100709.66;5032051;28;20747;-73
2023/01/14 03:15:49;;;;;;;12.77;8.83;;;;;;;1.63;100.00;100699.81;5031856;28;20810;-72
2023/01/14 03:18:32;;;;;;;11.03;8.07;;;;;;;1.70;100.00;100716.81;5031981;28;20604;-72
2023/01/14 03:21:23;;;;;;;12.73;8.50;;;;;;;1.69;100.00;100709.03;5031568;28;20339;-74
2023/01/14 03:23:55;;;;;;;13.33;8.47;;;;;;;1.65;100.00;100711.03;5032063;28;20268;-73
2023/01/14 03:26:24;;;;;;;13.53;8.80;;;;;;;1.60;100.00;100694.78;5032096;28;20268;-72
2023/01/14 03:28:50;;;;;;;13.35;8.50;;;;;;;1.57;100.00;100689.75;5032213;28;20271;-71
2023/01/14 03:31:22;;;;;;;12.70;8.43;;;;;;;1.61;100.00;100696.47;5032096;28;20037;-72
2023/01/14 03:34:14;;;;;;;14.23;7.87;;;;;;;1.61;100.00;100695.63;5014602;28;20287;-74
2023/01/14 03:36:43;;;;;;;13.33;8.73;;;;;;;1.73;100.00;100702.63;5032658;28;20260;-74
2023/01/14 03:39:15;;;;;;;13.27;8.05;;;;;;;1.71;100.00;100701.88;5032513;28;20252;-72
2023/01/14 03:44:32;;;;;;;;;;;;;;;1.66;100.00;100710.09;5032557;28;20280;-72
2023/01/14 03:46:59;;;;;;;10.82;7.97;;;;;;;1.68;100.00;100707.38;5032064;28;19913;-72
2023/01/14 03:49:24;;;;;;;15.43;9.57;;;;;;;1.66;100.00;100704.84;5031945;28;20036;-73
2023/01/14 03:52:06;;;;;;;12.23;9.00;;;;;;;1.70;100.00;100710.72;5032014;28;20260;-71
2023/01/14 03:55:01;;;;;;;11.83;7.27;;;;;;;1.67;100.00;100703.06;5032547;28;20033;-74
2023/01/14 03:57:39;;;;;;;13.73;8.33;;;;;;;1.64;100.00;100698.03;5015711;28;20363;-73
2023/01/14 04:00:10;;;;;;;13.63;8.73;;;;;;;1.59;100.00;100702.75;5033512;28;20252;-71
2023/01/14 04:02:37;;;;;;;16.83;10.50;;;;;;;1.45;100.00;100680.94;5035172;28;20041;-72
2023/01/14 04:05:03;;;;;;;14.57;9.03;;;;;;;1.37;100.00;100691.13;5035570;28;20268;-74
2023/01/14 04:07:28;;;;;;;16.27;9.67;;;;;;;1.41;100.00;100710.09;5035414;28;20252;-74
2023/01/14 04:09:54;;;;;;;15.13;10.27;;;;;;;1.45;100.00;100715.06;5035415;28;20603;-71
2023/01/14 04:12:19;;;;;;;20.87;13.10;;;;;;;1.46;100.00;100706.25;5017494;28;20416;-73
2023/01/14 04:17:29;;;;;;;18.70;10.13;;;;;;;1.46;100.00;100690.50;5034963;28;20457;-75
2023/01/14 04:19:55;;;;;;;14.30;9.13;;;;;;;1.39;100.00;100678.72;5017390;28;20288;-74
2023/01/14 04:22:20;;;;;;;13.87;9.67;;;;;;;1.47;100.00;100686.09;5034751;28;20022;-74
2023/01/14 04:24:46;;;;;;;16.93;9.80;;;;;;;1.50;100.00;100684.09;5034896;28;20033;-73
2023/01/14 04:27:11;;;;;;;16.60;9.63;;;;;;;1.48;100.00;100688.59;5035023;28;20057;-75
2023/01/14 04:29:37;;;;;;;14.83;9.43;;;;;;;1.48;100.00;100693.84;5035368;28;20040;-71
2023/01/14 04:32:02;;;;;;;14.13;8.97;;;;;;;1.57;100.00;100699.41;5036174;28;20116;-73
2023/01/14 04:34:28;;;;;;;16.23;9.30;;;;;;;1.53;100.00;100694.38;5040298;28;20366;-73
2023/01/14 04:36:53;;;;;;;12.63;8.60;;;;;;;1.33;100.00;100657.31;5041964;28;20030;-74
2023/01/14 04:39:19;;;;;;;21.23;10.20;;;;;;;1.54;100.00;100689.97;5017280;28;20030;-71
2023/01/14 04:44:29;;;;;;;11.87;8.53;;;;;;;1.49;100.00;100682.41;5034771;28;20053;-72
2023/01/14 04:46:54;;;;;;;14.53;9.50;;;;;;;1.47;100.00;100681.69;5035040;28;20351;-74
2023/01/14 04:49:20;;;;;;;17.10;9.90;;;;;;;1.39;100.00;100677.88;5034532;28;20079;-73
2023/01/14 04:51:45;;;;;;;12.27;8.27;;;;;;;1.41;100.00;100689.13;5035152;28;20040;-72
2023/01/14 04:54:11;;;;;;;13.03;9.37;;;;;;;1.30;100.00;100674.13;5040118;28;20104;-72
2023/01/14 04:56:36;;;;;;;13.13;8.13;;;;;;;1.37;100.00;100680.63;5040372;28;20033;-74
2023/01/14 04:59:03;;;;;;;14.40;8.93;;;;;;;1.35;100.00;100669.38;5040484;28;20424;-71
2023/01/14 05:01:29;;;;;;;15.67;9.30;;;;;;;1.41;100.00;100674.22;5040257;28;20029;-74
2023/01/14 05:03:58;;;;;;;12.53;8.67;;;;;;;1.37;100.00;100670.13;5034406;28;20252;-73
2023/01/14 05:06:28;;;;;;;;;;;;;;;1.52;100.00;100684.81;5034652;28;20256;-73
2023/01/14 05:08:54;;;;;;;13.07;7.90;;;;;;;1.47;100.00;100676.44;5034170;28;19984;-71
2023/01/14 05:11:19;;;;;;;12.00;7.93;;;;;;;1.43;100.00;100685.44;5033232;28;20264;-73
2023/01/14 05:13:45;;;;;;;16.77;9.57;;;;;;;1.40;100.00;100688.28;5034242;28;20346;-72
2023/01/14 05:16:10;;;;;;;13.87;9.13;;;;;;;1.33;100.00;100681.78;5002684;28;20069;-73
2023/01/14 05:18:36;;;;;;;13.90;9.10;;;;;;;1.37;100.00;100685.88;5035538;28;20051;-74
2023/01/14 05:21:01;;;;;;;12.90;8.27;;;;;;;1.36;100.00;100686.81;5037442;28;20075;-74
2023/01/14 05:23:27;;;;;;;12.33;7.60;;;;;;;1.37;100.00;100682.41;5052192;28;20029;-72
2023/01/14 05:25:52;;;;;;;10.90;7.47;;;;;;;1.31;100.00;100673.19;5055184;28;20639;-72
2023/01/14 05:28:19;;;;;;;9.87;7.17;;;;;;;1.33;100.00;100687.03;5053788;28;20056;-75
2023/01/14 05:30:46;;;;;;;10.23;6.77;;;;;;;1.37;100.00;100692.91;5048145;28;20026;-73
2023/01/14 05:33:12;;;;;;;12.50;6.77;;;;;;;1.32;100.00;100679.25;5034757;28;20614;-72
2023/01/14 05:35:37;;;;;;;10.37;6.67;;;;;;;1.23;100.00;100670.25;5033924;28;20288;-73
2023/01/14 05:38:04;;;;;;;9.80;7.20;;;;;;;1.24;100.00;100698.16;5033628;28;20025;-75
2023/01/14 05:40:30;;;;;;;10.50;7.37;;;;;;;1.22;100.00;100674.66;5033192;28;20030;-72
2023/01/14 05:45:47;;;;;;;10.73;5.67;;;;;;;1.29;100.00;100690.81;5034751;28;20083;-73
2023/01/14 05:48:13;;;;;;;8.67;5.97;;;;;;;1.18;100.00;100662.69;5036063;28;20313;-73
2023/01/14 05:50:39;;;;;;;7.37;5.47;;;;;;;1.31;100.00;100678.41;5033539;28;20259;-72
2023/01/14 05:53:06;;;;;;;7.77;5.60;;;;;;;1.31;100.00;100673.19;5033266;28;20253;-72
2023/01/14 05:55:33;;;;;;;9.93;6.73;;;;;;;1.25;100.00;100681.47;5035196;28;20032;-73
2023/01/14 05:58:01;;;;;;;6.20;5.33;;;;;;;1.15;100.00;100665.50;5035725;28;20264;-73
2023/01/14 06:08:42;;;;;;;7.30;5.40;;;;;;;1.30;100.00;100671.50;5036557;28;20260;-73
2023/01/14 06:11:08;;;;;;;6.00;5.40;;;;;;;1.28;100.00;100665.53;5032362;28;20600;-75
2023/01/14 06:13:37;;;;;;;8.00;5.47;;;;;;;1.29;100.00;100656.69;5032510;28;20033;-76
2023/01/14 06:16:06;;;;;;;6.93;4.88;;;;;;;1.38;100.00;100679.66;5032403;28;20771;-75
2023/01/14 06:18:37;;;;;;;5.32;4.65;;;;;;;1.31;100.00;100677.59;5032880;28;20403;-77
2023/01/14 06:21:06;;;;;;;8.10;5.40;;;;;;;1.20;100.00;100665.22;4998799;28;20465;-75
2023/01/14 06:23:31;;;;;;;8.82;4.47;;;;;;;1.25;100.00;100670.97;5014907;28;20268;-73
2023/01/14 06:25:57;;;;;;;5.00;4.50;;;;;;;1.28;100.00;100677.78;5032469;28;20030;-74
2023/01/14 06:28:22;;;;;;;7.80;5.47;;;;;;;1.21;100.00;100677.38;5032291;28;20025;-73
2023/01/14 06:30:48;;;;;;;6.40;4.87;;;;;;;1.23;100.00;100688.59;5032715;28;20037;-74
2023/01/14 06:33:14;;;;;;;5.73;4.43;;;;;;;1.23;100.00;100681.56;5032417;28;20029;-75
2023/01/14 06:35:42;;;;;;;5.57;4.63;;;;;;;1.29;100.00;100680.31;5032521;28;20033;-74
2023/01/14 06:38:09;;;;;;;4.97;4.07;;;;;;;1.33;100.00;100676.53;5032557;28;20469;-74
2023/01/14 06:40:37;;;;;;;7.37;4.83;;;;;;;1.35;100.00;100687.75;5032552;28;20025;-75
2023/01/14 06:43:09;;;;;;;6.63;4.40;;;;;;;1.21;100.00;100682.63;5033591;28;20256;-74
2023/01/14 06:45:36;;;;;;;6.90;4.80;;;;;;;1.21;100.00;100677.38;5015666;28;20358;-76
2023/01/14 06:48:02;;;;;;;5.80;4.70;;;;;;;1.21;100.00;100677.38;5032939;28;20380;-73
2023/01/14 06:50:28;;;;;;;6.33;5.43;;;;;;;1.24;100.00;100687.66;5015378;28;20272;-74
2023/01/14 06:52:58;;;;;;;8.57;5.23;;;;;;;1.21;100.00;100680.00;5027186;28;20033;-75
2023/01/14 06:55:24;;;;;;;9.90;5.87;;;;;;;1.22;100.00;100690.41;5015114;28;20030;-74
2023/01/14 06:57:49;;;;;;;7.93;6.23;;;;;;;1.17;100.00;100674.13;5015403;28;20275;-74
2023/01/14 07:00:18;;;;;;;7.37;5.00;;;;;;;1.22;100.00;100693.00;5033235;28;20040;-74
2023/01/14 07:02:43;;;;;;;11.00;5.78;;;;;;;1.20;100.00;100691.44;5032188;28;20025;-74
2023/01/14 07:05:09;;;;;;;7.00;5.80;;;;;;;1.17;100.00;100704.78;5014575;28;20037;-74
2023/01/14 07:07:35;;;;;;;8.97;6.07;;;;;;;1.15;100.00;100699.59;5032030;28;20570;-77
2023/01/14 07:10:00;;;;;;;6.20;5.53;;;;;;;1.21;100.00;100690.50;5031696;28;20021;-77
2023/01/14 07:12:26;;;;;;;7.37;5.97;;;;;;;1.26;100.00;100698.88;5032189;28;20056;-75
2023/01/14 07:14:51;;;;;;;10.67;8.30;;;;;;;1.23;100.00;100696.47;5032075;28;20033;-75
2023/01/14 07:17:16;;;;;;;15.10;10.20;;;;;;;1.35;100.00;100698.25;5032193;28;20087;-74
2023/01/14 07:19:42;;;;;;;16.23;10.20;;;;;;;1.16;100.00;100666.38;5032360;28;20029;-76
2023/01/14 07:22:07;;;;;;;12.53;8.30;;;;;;;1.29;100.00;100700.47;5032108;28;20156;-77
2023/01/14 07:24:33;;;;;;;15.17;8.17;;;;;;;1.31;100.00;100698.56;5033358;28;20049;-83
2023/01/14 07:26:58;;;;;;;8.27;5.97;;;;;;;1.36;100.00;100705.19;5016037;28;20044;-78
2023/01/14 07:29:24;;;;;;;8.83;6.13;;;;;;;1.29;100.00;100701.31;5032505;28;20112;-73
2023/01/14 07:31:52;;;;;;;16.60;8.63;;;;;;;1.29;100.00;100711.78;5033075;28;20484;-78
2023/01/14 07:34:18;;;;;;;9.20;6.15;;;;;;;1.30;100.00;100708.22;5033589;28;20029;-75
2023/01/14 07:36:43;;;;;;;8.07;6.03;;;;;;;1.27;100.00;100713.69;5037178;28;20029;-74
2023/01/14 07:39:09;;;;;;;9.37;6.90;;;;;;;1.16;100.00;100697.84;5035964;28;20048;-69
2023/01/14 07:41:35;;;;;;;8.53;6.10;;;;;;;1.20;100.00;100702.78;5035422;28;20465;-72
2023/01/14 07:44:04;;;;;;;6.40;5.00;;;;;;;1.21;100.00;100716.72;5035800;28;20280;-75
2023/01/14 07:46:29;;;;;;;;;;;;;;;1.19;100.00;100722.09;5036400;28;20116;-75
2023/01/14 07:48:55;;;;;;;10.00;7.60;;;;;;;1.13;100.00;100716.38;5035717;28;20345;-73
2023/01/14 07:51:20;;;;;;;9.03;5.97;;;;;;;1.18;100.00;100724.81;5036144;28;20540;-77
2023/01/14 07:53:47;;;;;;;7.07;5.60;;;;;;;1.14;100.00;100715.44;5036032;28;20033;-77
2023/01/14 07:56:13;;;;;;;5.70;5.20;;;;;;;1.15;100.00;100715.34;5035826;28;20029;-74
2023/01/14 07:58:39;;;;;;;7.10;5.23;;;;;;;1.11;100.00;100702.53;5034692;28;20268;-77
2023/01/14 08:01:06;;;;;;;5.40;4.47;;;;;;;1.16;100.00;100711.81;5016598;28;20284;-77
2023/01/14 08:03:32;;;;;;;5.40;4.87;;;;;;;1.21;100.00;100716.72;5035744;28;20431;-76
2023/01/14 08:06:01;;;;;;;5.73;4.83;;;;;;;1.17;100.00;100713.47;5035453;28;20253;-75
2023/01/14 08:08:27;;;;;;;6.17;4.67;;;;;;;1.23;100.00;100717.47;5035620;28;20038;-76
2023/01/14 08:10:53;;;;;;;8.80;4.47;;;;;;;1.20;100.00;100721.13;5018273;28;20612;-75
2023/01/14 08:13:18;;;;;;;5.37;4.87;;;;;;;1.24;100.00;100727.00;5035613;28;20034;-74
2023/01/14 08:15:44;;;;;;;8.17;6.53;;;;;;;1.29;100.00;100722.28;5035034;28;20358;-75
2023/01/14 08:18:09;;;;;;;5.77;5.13;;;;;;;1.25;100.00;100715.56;5035307;28;20549;-75
2023/01/14 08:20:35;;;;;;;10.43;7.53;;;;;;;1.21;100.00;100714.09;5035418;28;20075;-73
2023/01/14 08:23:00;;;;;;;10.33;7.63;;;;;;;1.23;100.00;100714.84;5036196;28;20025;-75
2023/01/14 08:25:27;;;;;;;13.03;8.47;;;;;;;1.27;100.00;100713.69;5035681;28;20032;-74
2023/01/14 08:27:54;;;;;;;14.40;8.83;;;;;;;1.26;100.00;100721.66;5018135;28;20377;-75
2023/01/14 08:30:20;;;;;;;9.97;5.20;;;;;;;1.26;100.00;100717.25;5034876;28;20732;-74
2023/01/14 08:32:47;;;;;;;4.73;4.20;;;;;;;1.16;100.00;100696.06;5034625;28;20305;-73
2023/01/14 08:35:13;;;;;;;10.70;6.40;;;;;;;1.23;100.00;100717.47;5016926;28;20788;-73
2023/01/14 08:37:41;;;;;;;14.73;6.77;;;;;;;1.24;100.00;100719.16;5034463;28;20252;-73
2023/01/14 08:40:08;;;;;;;8.83;5.70;;;;;;;1.24;100.00;100719.16;5035155;28;20033;-74
2023/01/14 08:42:33;;;;;;;13.03;6.57;;;;;;;1.31;100.00;100716.94;5034255;28;20299;-73
2023/01/14 08:45:00;;;;;;;26.33;12.13;;;;;;;1.29;100.00;100710.97;5033757;28;20370;-73
2023/01/14 08:47:28;;;;;;;13.83;6.37;;;;;;;1.27;100.00;100704.97;5032734;28;20446;-73
2023/01/14 08:49:54;;;;;;;12.20;6.22;;;;;;;1.24;100.00;100703.41;5033490;28;20244;-80
2023/01/14 08:52:19;;;;;;;8.70;4.57;;;;;;;1.20;100.00;100694.06;5035671;28;20036;-73
2023/01/14 08:54:45;;;;;;;15.00;7.43;;;;;;;1.27;100.00;100713.69;5016360;28;20048;-74
2023/01/14 08:57:10;;;;;;;16.13;7.57;;;;;;;1.31;100.00;100703.81;5034195;28;20025;-75
2023/01/14 08:59:36;;;;;;;6.07;4.60;;;;;;;1.33;100.00;100708.00;5034169;28;20473;-74
2023/01/14 09:02:27;;;;;;;6.20;3.77;;;;;;;1.23;100.00;100693.84;5034328;28;20551;-74
2023/01/14 09:04:52;;;;;;;9.63;6.53;;;;;;;1.25;100.00;100699.84;5033827;28;20268;-73
2023/01/14 09:18:15;;;;;;;8.03;4.13;;;;;;;1.18;100.00;100704.66;5044536;28;20728;-76
2023/01/14 09:20:42;;;;;;;14.17;7.53;;;;;;;1.16;100.00;100708.34;5018687;28;20351;-75
2023/01/14 09:23:09;;;;;;;6.87;4.43;;;;;;;1.18;100.00;100709.06;5039496;28;20049;-74
2023/01/14 09:25:35;;;;;;;3.67;3.37;;;;;;;1.17;100.00;100694.28;5036839;28;20767;-76
2023/01/14 09:28:01;;;;;;;5.33;4.00;;;;;;;1.17;100.00;100702.16;5035439;28;20256;-77
2023/01/14 09:30:26;;;;;;;7.23;4.20;;;;;;;1.22;100.00;100706.13;5033803;28;20654;-71
2023/01/14 09:32:52;;;;;;;5.33;4.13;;;;;;;1.23;100.00;100707.81;5033763;28;20021;-74
2023/01/14 09:35:18;;;;;;;6.50;4.20;;;;;;;1.23;100.00;100699.09;5015499;28;20029;-72
2023/01/14 09:37:44;;;;;;;5.80;3.93;;;;;;;1.26;100.00;100703.28;5033350;28;20026;-72
2023/01/14 09:40:10;;;;;;;3.97;3.57;;;;;;;1.25;100.00;100694.59;5033621;28;20072;-72
2023/01/14 09:42:45;;;;;;;4.83;3.33;;;;;;;1.33;100.00;100701.94;5033390;28;20033;-72
2023/01/14 09:45:24;;;;;;;5.10;3.43;;;;;;;1.20;100.00;100688.81;5036297;28;20273;-74
2023/01/14 09:47:51;;;;;;;4.10;3.63;;;;;;;1.14;100.00;100676.09;5017680;28;20640;-75
2023/01/14 09:50:29;;;;;;;3.97;3.43;;;;;;;1.17;100.00;100686.41;5035229;28;20272;-74
2023/01/14 09:53:03;;;;;;;6.45;3.72;;;;;;;1.24;100.00;100687.66;5032772;28;20256;-74
2023/01/14 09:55:42;;;;;;;5.23;3.60;;;;;;;1.15;100.00;100672.53;5015853;28;20481;-75
2023/01/14 09:58:20;;;;;;;6.43;4.30;;;;;;;1.36;100.00;100699.09;5032524;28;20256;-73
2023/01/14 10:00:53;;;;;;;3.70;3.37;;;;;;;1.37;100.00;100688.50;5015171;28;20268;-75
2023/01/14 10:03:30;;;;;;;3.50;3.20;;;;;;;1.34;100.00;100699.19;5033069;28;20375;-77
2023/01/14 10:06:10;;;;;;;4.53;3.87;;;;;;;1.32;100.00;100680.09;5015326;28;20704;-73
2023/01/14 10:08:41;;;;;;;4.07;3.57;;;;;;;1.37;100.00;100688.50;5015159;28;20360;-74
2023/01/14 10:11:11;;;;;;;6.57;3.57;;;;;;;1.42;100.00;100696.88;5032641;28;20350;-74
2023/01/14 10:13:53;;;;;;;6.43;3.60;;;;;;;1.44;100.00;100689.72;5015135;28;20272;-74
2023/01/14 10:16:34;;;;;;;4.07;3.33;;;;;;;1.27;100.00;100666.47;5015002;28;20283;-73
2023/01/14 10:19:29;;;;;;;4.30;3.63;;;;;;;1.35;100.00;100695.63;5032754;28;20677;-75
2023/01/14 10:22:02;;;;;;;4.03;3.27;;;;;;;1.27;100.00;100705.81;5009589;28;20699;-72
2023/01/14 10:24:29;;;;;;;4.07;2.97;;;;;;;1.30;100.00;100702.97;5023284;28;20402;-74
2023/01/14 10:26:56;;;;;;;10.23;5.93;;;;;;;1.36;100.00;100701.72;5035262;28;20260;-74
2023/01/14 10:29:24;;;;;;;8.57;5.20;;;;;;;1.32;100.00;100698.47;5016050;28;20284;-74
2023/01/14 10:31:59;;;;;;;5.78;3.78;;;;;;;1.34;100.00;100693.09;5015794;28;20366;-78
2023/01/14 10:34:47;;;;;;;5.10;3.80;;;;;;;1.37;100.00;100682.41;5015024;28;20036;-75
2023/01/14 10:37:14;;;;;;;11.48;6.88;;;;;;;1.41;100.00;100670.75;5033033;28;20268;-79
2023/01/14 10:39:51;;;;;;;11.30;6.30;;;;;;;1.51;100.00;100682.31;5033830;28;20044;-76
2023/01/14 10:42:24;;;;;;;6.60;4.70;;;;;;;1.47;100.00;100680.84;5033356;28;20271;-73
2023/01/14 10:44:55;;;;;;;8.07;4.80;;;;;;;1.48;100.00;100679.91;5035210;28;20287;-75
2023/01/14 10:47:25;;;;;;;19.43;7.53;;;;;;;1.44;100.00;100694.16;5042866;28;20296;-78
2023/01/14 10:50:17;;;;;;;6.57;5.00;;;;;;;1.46;100.00;100693.13;5031650;28;20264;-74
2023/01/14 10:53:28;;;;;;;6.90;4.40;;;;;;;1.39;100.00;100696.25;5050523;28;20029;-80
2023/01/14 10:56:11;;;;;;;4.40;3.97;;;;;;;1.36;100.00;100707.81;5051118;28;20354;-75
2023/01/14 10:58:46;;;;;;;5.60;4.90;;;;;;;1.37;100.00;100709.47;5028592;28;20268;-75
2023/01/14 11:01:14;;;;;;;5.83;4.27;;;;;;;1.41;100.00;100708.31;5034894;28;20681;-76
2023/01/14 11:03:50;;;;;;;7.33;4.63;;;;;;;1.45;100.00;100701.94;5034337;28;20315;-74
2023/01/14 11:06:17;;;;;;;6.60;4.67;;;;;;;1.45;100.00;100707.19;5033537;28;20303;-81
2023/01/14 11:08:51;;;;;;;7.67;4.67;;;;;;;1.40;100.00;100719.75;5033352;28;20743;-76
2023/01/14 11:11:24;;;;;;;5.50;4.73;;;;;;;1.37;100.00;100713.88;5036971;28;20260;-76
2023/01/14 11:13:53;;;;;;;6.60;5.00;;;;;;;1.39;100.00;100712.00;5037040;28;20268;-75
2023/01/14 11:16:21;;;;;;;10.17;4.87;;;;;;;1.39;100.00;100702.34;5035995;28;20334;-71
2023/01/14 11:19:19;;;;;;;5.85;4.95;;;;;;;1.40;100.00;100695.31;5036400;28;20264;-75
2023/01/14 11:21:53;;;;;;;8.30;4.93;;;;;;;1.45;100.00;100717.69;5036509;28;20041;-72
2023/01/14 11:24:39;;;;;;;5.87;5.27;;;;;;;1.50;100.00;100709.50;5035965;28;20678;-73
2023/01/14 11:27:23;;;;;;;5.80;4.67;;;;;;;1.49;100.00;100700.78;5036107;28;20255;-71
2023/01/14 11:29:57;;;;;;;7.03;5.57;;;;;;;1.52;100.00;100697.94;5036001;28;20811;-74
2023/01/14 11:32:27;;;;;;;7.47;6.30;;;;;;;1.59;100.00;100692.25;5036267;28;20263;-73
2023/01/14 11:34:59;;;;;;;8.73;5.17;;;;;;;1.59;100.00;100693.09;5035724;28;20325;-73
2023/01/14 11:37:49;;;;;;;12.97;7.23;;;;;;;1.60;100.00;100691.31;5036126;28;20295;-73
2023/01/14 11:43:14;;;;;;;;;;;;;;;1.50;100.00;100688.50;5036102;28;20300;-74
2023/01/14 11:45:41;;;;;;;9.13;6.20;;;;;;;1.46;100.00;100693.13;5035534;28;20303;-76
2023/01/14 11:48:24;;;;;;;7.55;5.82;;;;;;;1.43;100.00;100688.06;5034171;28;20288;-72
2023/01/14 11:51:04;;;;;;;14.33;8.50;;;;;;;1.49;100.00;100673.69;5034930;28;20083;-72
2023/01/14 11:53:47;;;;;;;11.63;7.07;;;;;;;1.51;100.00;100674.44;5034865;28;20322;-72
2023/01/14 11:56:17;;;;;;;6.27;5.43;;;;;;;1.51;100.00;100659.53;5035057;28;20310;-69
2023/01/14 11:58:43;;;;;;;12.23;7.50;;;;;;;1.53;100.00;100647.13;5035196;28;20256;-69
2023/01/14 12:01:23;;;;;;;10.13;7.13;;;;;;;1.52;100.00;100655.09;5034674;28;20245;-71
2023/01/14 12:04:02;;;;;;;11.87;8.40;;;;;;;1.54;100.00;100664.56;5034201;28;20556;-70
2023/01/14 12:06:33;;;;;;;9.20;7.43;;;;;;;1.51;100.00;100664.78;5034782;28;20283;-70
2023/01/14 12:09:05;;;;;;;12.80;9.13;;;;;;;1.53;100.00;100660.25;5034728;28;20259;-70
2023/01/14 12:11:50;;;;;;;10.60;6.20;;;;;;;1.53;100.00;100662.03;5034576;28;20257;-71